sensor_id;sensor_type;location;lat;lon;timestamp;P1;durP1;ratioP1;P2;durP2;ratioP2
10801;SDS011;5453;50.852;7.102;2023-12-20T00:01:03;4.63;;;2.13;;
10801;SDS011;5453;50.852;7.102;2023-12-20T00:03:35;4.47;;;2.40;;
10801;SDS011;5453;50.852;7.102;2023-12-20T00:06:08;4.63;;;2.67;;
10801;SDS011;5453;50.852;7.102;2023-12-20T00:08:41;5.93;;;2.67;;
10801;SDS011;5453;50.852;7.102;2023-12-20T00:11:14;4.50;;;2.22;;
10801;SDS011;5453;50.852;7.102;2023-12-20T00:13:48;3.33;;;1.98;;
10801;SDS011;5453;50.852;7.102;2023-12-20T00:16:20;4.78;;;2.35;;
10801;SDS011;5453;50.852;7.102;2023-12-20T00:18:52;5.40;;;2.53;;
10801;SDS011;5453;50.852;7.102;2023-12-20T00:21:25;4.25;;;2.20;;
10801;SDS011;5453;50.852;7.102;2023-12-20T00:24:00;5.45;;;2.80;;
10801;SDS011;5453;50.852;7.102;2023-12-20T00:26:32;7.43;;;3.47;;
10801;SDS011;5453;50.852;7.102;2023-12-20T00:29:06;6.22;;;2.72;;
10801;SDS011;5453;50.852;7.102;2023-12-20T00:31:38;8.40;;;3.30;;
10801;SDS011;5453;50.852;7.102;2023-12-20T00:34:11;7.18;;;3.20;;
10801;SDS011;5453;50.852;7.102;2023-12-20T00:36:43;7.25;;;3.20;;
10801;SDS011;5453;50.852;7.102;2023-12-20T00:39:16;7.80;;;3.42;;
10801;SDS011;5453;50.852;7.102;2023-12-20T00:41:48;8.43;;;3.45;;
10801;SDS011;5453;50.852;7.102;2023-12-20T00:44:22;6.53;;;3.17;;
10801;SDS011;5453;50.852;7.102;2023-12-20T00:46:54;7.25;;;3.33;;
10801;SDS011;5453;50.852;7.102;2023-12-20T00:49:26;8.00;;;3.47;;
10801;SDS011;5453;50.852;7.102;2023-12-20T00:51:59;10.27;;;4.25;;
10801;SDS011;5453;50.852;7.102;2023-12-20T00:54:31;10.63;;;4.25;;
10801;SDS011;5453;50.852;7.102;2023-12-20T00:57:04;10.00;;;4.75;;
10801;SDS011;5453;50.852;7.102;2023-12-20T00:59:38;9.57;;;4.50;;
10801;SDS011;5453;50.852;7.102;2023-12-20T01:02:10;8.57;;;4.20;;
10801;SDS011;5453;50.852;7.102;2023-12-20T01:04:43;7.53;;;3.80;;
10801;SDS011;5453;50.852;7.102;2023-12-20T01:07:15;8.15;;;3.78;;
10801;SDS011;5453;50.852;7.102;2023-12-20T01:09:48;8.65;;;3.78;;
10801;SDS011;5453;50.852;7.102;2023-12-20T01:12:20;7.43;;;3.42;;
10801;SDS011;5453;50.852;7.102;2023-12-20T01:14:54;8.90;;;4.13;;
10801;SDS011;5453;50.852;7.102;2023-12-20T01:17:29;9.48;;;4.15;;
10801;SDS011;5453;50.852;7.102;2023-12-20T01:20:02;8.63;;;4.15;;
10801;SDS011;5453;50.852;7.102;2023-12-20T01:22:36;7.68;;;3.50;;
10801;SDS011;5453;50.852;7.102;2023-12-20T01:25:08;8.77;;;3.78;;
10801;SDS011;5453;50.852;7.102;2023-12-20T01:27:41;8.55;;;3.80;;
10801;SDS011;5453;50.852;7.102;2023-12-20T01:30:14;8.20;;;3.67;;
10801;SDS011;5453;50.852;7.102;2023-12-20T01:32:47;8.13;;;3.45;;
10801;SDS011;5453;50.852;7.102;2023-12-20T01:35:19;9.25;;;4.20;;
10801;SDS011;5453;50.852;7.102;2023-12-20T01:37:51;7.53;;;3.63;;
10801;SDS011;5453;50.852;7.102;2023-12-20T01:40:26;6.57;;;3.20;;
10801;SDS011;5453;50.852;7.102;2023-12-20T01:42:59;5.90;;;3.03;;
10801;SDS011;5453;50.852;7.102;2023-12-20T01:45:33;7.70;;;2.97;;
10801;SDS011;5453;50.852;7.102;2023-12-20T01:48:06;7.40;;;3.20;;
10801;SDS011;5453;50.852;7.102;2023-12-20T01:50:40;6.20;;;2.75;;
10801;SDS011;5453;50.852;7.102;2023-12-20T01:53:13;7.13;;;3.30;;
10801;SDS011;5453;50.852;7.102;2023-12-20T01:55:47;9.52;;;4.00;;
10801;SDS011;5453;50.852;7.102;2023-12-20T01:58:21;6.70;;;3.40;;
10801;SDS011;5453;50.852;7.102;2023-12-20T02:00:56;11.48;;;4.13;;
10801;SDS011;5453;50.852;7.102;2023-12-20T02:03:29;9.00;;;4.25;;
10801;SDS011;5453;50.852;7.102;2023-12-20T02:06:02;10.90;;;4.47;;
10801;SDS011;5453;50.852;7.102;2023-12-20T02:08:38;14.70;;;5.10;;
10801;SDS011;5453;50.852;7.102;2023-12-20T02:11:10;10.98;;;4.65;;
10801;SDS011;5453;50.852;7.102;2023-12-20T02:13:43;10.95;;;4.78;;
10801;SDS011;5453;50.852;7.102;2023-12-20T02:16:17;12.55;;;5.10;;
10801;SDS011;5453;50.852;7.102;2023-12-20T02:18:49;13.45;;;5.57;;
10801;SDS011;5453;50.852;7.102;2023-12-20T02:21:25;10.63;;;4.57;;
10801;SDS011;5453;50.852;7.102;2023-12-20T02:24:05;8.95;;;4.20;;
10801;SDS011;5453;50.852;7.102;2023-12-20T02:26:37;8.77;;;3.85;;
10801;SDS011;5453;50.852;7.102;2023-12-20T02:29:10;10.93;;;3.25;;
10801;SDS011;5453;50.852;7.102;2023-12-20T02:31:43;9.20;;;3.58;;
10801;SDS011;5453;50.852;7.102;2023-12-20T02:34:15;13.07;;;3.47;;
10801;SDS011;5453;50.852;7.102;2023-12-20T02:36:49;6.72;;;3.28;;
10801;SDS011;5453;50.852;7.102;2023-12-20T02:39:21;9.13;;;3.53;;
10801;SDS011;5453;50.852;7.102;2023-12-20T02:41:54;10.68;;;3.45;;
10801;SDS011;5453;50.852;7.102;2023-12-20T02:44:26;8.38;;;3.05;;
10801;SDS011;5453;50.852;7.102;2023-12-20T02:46:59;9.48;;;3.28;;
10801;SDS011;5453;50.852;7.102;2023-12-20T02:49:31;9.82;;;3.08;;
10801;SDS011;5453;50.852;7.102;2023-12-20T02:52:08;11.15;;;3.03;;
10801;SDS011;5453;50.852;7.102;2023-12-20T02:54:40;8.48;;;2.53;;
10801;SDS011;5453;50.852;7.102;2023-12-20T02:57:13;5.18;;;2.72;;
10801;SDS011;5453;50.852;7.102;2023-12-20T02:59:45;7.35;;;2.30;;
10801;SDS011;5453;50.852;7.102;2023-12-20T03:02:18;6.07;;;2.70;;
10801;SDS011;5453;50.852;7.102;2023-12-20T03:04:50;6.57;;;1.98;;
10801;SDS011;5453;50.852;7.102;2023-12-20T03:07:24;9.73;;;2.42;;
10801;SDS011;5453;50.852;7.102;2023-12-20T03:09:56;8.00;;;1.88;;
10801;SDS011;5453;50.852;7.102;2023-12-20T03:12:28;7.13;;;1.80;;
10801;SDS011;5453;50.852;7.102;2023-12-20T03:15:01;7.85;;;2.00;;
10801;SDS011;5453;50.852;7.102;2023-12-20T03:17:33;5.25;;;1.90;;
10801;SDS011;5453;50.852;7.102;2023-12-20T03:20:06;5.78;;;1.67;;
10801;SDS011;5453;50.852;7.102;2023-12-20T03:22:41;7.28;;;1.95;;
10801;SDS011;5453;50.852;7.102;2023-12-20T03:25:14;2.40;;;1.33;;
10801;SDS011;5453;50.852;7.102;2023-12-20T03:27:46;4.53;;;1.55;;
10801;SDS011;5453;50.852;7.102;2023-12-20T03:30:19;5.30;;;1.70;;
10801;SDS011;5453;50.852;7.102;2023-12-20T03:32:51;4.95;;;1.70;;
10801;SDS011;5453;50.852;7.102;2023-12-20T03:35:23;6.82;;;1.55;;
10801;SDS011;5453;50.852;7.102;2023-12-20T03:37:57;6.55;;;1.90;;
10801;SDS011;5453;50.852;7.102;2023-12-20T03:40:30;7.28;;;2.67;;
10801;SDS011;5453;50.852;7.102;2023-12-20T03:43:03;5.90;;;1.85;;
10801;SDS011;5453;50.852;7.102;2023-12-20T03:45:35;5.60;;;1.75;;
10801;SDS011;5453;50.852;7.102;2023-12-20T03:48:07;6.28;;;2.03;;
10801;SDS011;5453;50.852;7.102;2023-12-20T03:50:40;4.38;;;1.67;;
10801;SDS011;5453;50.852;7.102;2023-12-20T03:53:14;7.30;;;2.72;;
10801;SDS011;5453;50.852;7.102;2023-12-20T03:55:46;6.43;;;1.67;;
10801;SDS011;5453;50.852;7.102;2023-12-20T03:58:19;3.30;;;1.80;;
10801;SDS011;5453;50.852;7.102;2023-12-20T04:00:51;4.63;;;1.65;;
10801;SDS011;5453;50.852;7.102;2023-12-20T04:03:23;7.70;;;1.90;;
10801;SDS011;5453;50.852;7.102;2023-12-20T04:05:56;7.53;;;2.25;;
10801;SDS011;5453;50.852;7.102;2023-12-20T04:08:33;5.30;;;1.95;;
10801;SDS011;5453;50.852;7.102;2023-12-20T04:11:05;4.72;;;1.92;;
10801;SDS011;5453;50.852;7.102;2023-12-20T04:13:37;14.00;;;2.10;;
10801;SDS011;5453;50.852;7.102;2023-12-20T04:16:10;4.20;;;2.10;;
10801;SDS011;5453;50.852;7.102;2023-12-20T04:18:42;6.53;;;2.00;;
10801;SDS011;5453;50.852;7.102;2023-12-20T04:21:14;8.85;;;2.78;;
10801;SDS011;5453;50.852;7.102;2023-12-20T04:23:48;8.27;;;2.30;;
10801;SDS011;5453;50.852;7.102;2023-12-20T04:26:20;5.60;;;2.05;;
10801;SDS011;5453;50.852;7.102;2023-12-20T04:28:53;5.32;;;2.03;;
10801;SDS011;5453;50.852;7.102;2023-12-20T04:31:25;8.35;;;1.95;;
10801;SDS011;5453;50.852;7.102;2023-12-20T04:33:57;7.20;;;2.33;;
10801;SDS011;5453;50.852;7.102;2023-12-20T04:36:30;6.38;;;2.22;;
10801;SDS011;5453;50.852;7.102;2023-12-20T04:39:03;6.65;;;2.05;;
10801;SDS011;5453;50.852;7.102;2023-12-20T04:41:36;8.80;;;2.65;;
10801;SDS011;5453;50.852;7.102;2023-12-20T04:44:09;8.40;;;2.80;;
10801;SDS011;5453;50.852;7.102;2023-12-20T04:46:41;9.30;;;2.65;;
10801;SDS011;5453;50.852;7.102;2023-12-20T04:49:14;4.68;;;2.08;;
10801;SDS011;5453;50.852;7.102;2023-12-20T04:51:46;6.03;;;1.90;;
10801;SDS011;5453;50.852;7.102;2023-12-20T04:54:24;8.75;;;2.40;;
10801;SDS011;5453;50.852;7.102;2023-12-20T04:56:57;7.30;;;2.53;;
10801;SDS011;5453;50.852;7.102;2023-12-20T04:59:29;9.25;;;2.83;;
10801;SDS011;5453;50.852;7.102;2023-12-20T05:02:01;10.13;;;2.72;;
10801;SDS011;5453;50.852;7.102;2023-12-20T05:04:34;8.23;;;2.72;;
10801;SDS011;5453;50.852;7.102;2023-12-20T05:07:06;9.73;;;2.90;;
10801;SDS011;5453;50.852;7.102;2023-12-20T05:09:40;12.18;;;3.00;;
10801;SDS011;5453;50.852;7.102;2023-12-20T05:12:12;8.52;;;2.47;;
10801;SDS011;5453;50.852;7.102;2023-12-20T05:14:45;10.18;;;2.88;;
10801;SDS011;5453;50.852;7.102;2023-12-20T05:17:18;9.88;;;3.35;;
10801;SDS011;5453;50.852;7.102;2023-12-20T05:19:51;8.75;;;3.03;;
10801;SDS011;5453;50.852;7.102;2023-12-20T05:22:27;10.13;;;2.75;;
10801;SDS011;5453;50.852;7.102;2023-12-20T05:25:01;5.72;;;2.40;;
10801;SDS011;5453;50.852;7.102;2023-12-20T05:30:07;5.65;;;2.55;;
10801;SDS011;5453;50.852;7.102;2023-12-20T05:32:40;11.32;;;3.22;;
10801;SDS011;5453;50.852;7.102;2023-12-20T05:35:13;9.48;;;3.10;;
10801;SDS011;5453;50.852;7.102;2023-12-20T05:37:45;10.30;;;2.95;;
10801;SDS011;5453;50.852;7.102;2023-12-20T05:40:19;11.35;;;3.40;;
10801;SDS011;5453;50.852;7.102;2023-12-20T05:42:51;13.10;;;3.13;;
10801;SDS011;5453;50.852;7.102;2023-12-20T05:45:24;8.70;;;3.20;;
10801;SDS011;5453;50.852;7.102;2023-12-20T05:47:56;11.68;;;3.50;;
10801;SDS011;5453;50.852;7.102;2023-12-20T05:50:29;11.70;;;3.38;;
10801;SDS011;5453;50.852;7.102;2023-12-20T05:53:01;12.20;;;3.67;;
10801;SDS011;5453;50.852;7.102;2023-12-20T05:55:35;8.13;;;3.20;;
10801;SDS011;5453;50.852;7.102;2023-12-20T05:58:07;7.15;;;2.80;;
10801;SDS011;5453;50.852;7.102;2023-12-20T06:00:39;9.18;;;2.70;;
10801;SDS011;5453;50.852;7.102;2023-12-20T06:03:12;8.80;;;3.17;;
10801;SDS011;5453;50.852;7.102;2023-12-20T06:05:44;16.00;;;3.78;;
10801;SDS011;5453;50.852;7.102;2023-12-20T06:08:17;10.23;;;3.08;;
10801;SDS011;5453;50.852;7.102;2023-12-20T06:10:50;7.78;;;2.50;;
10801;SDS011;5453;50.852;7.102;2023-12-20T06:13:23;10.80;;;2.95;;
10801;SDS011;5453;50.852;7.102;2023-12-20T06:15:55;10.80;;;3.33;;
10801;SDS011;5453;50.852;7.102;2023-12-20T06:18:28;9.70;;;2.95;;
10801;SDS011;5453;50.852;7.102;2023-12-20T06:21:00;11.27;;;3.33;;
10801;SDS011;5453;50.852;7.102;2023-12-20T06:23:32;9.25;;;3.42;;
10801;SDS011;5453;50.852;7.102;2023-12-20T06:26:06;9.73;;;3.20;;
10801;SDS011;5453;50.852;7.102;2023-12-20T06:28:38;8.13;;;3.13;;
10801;SDS011;5453;50.852;7.102;2023-12-20T06:31:11;9.68;;;2.70;;
10801;SDS011;5453;50.852;7.102;2023-12-20T06:33:43;9.77;;;3.22;;
10801;SDS011;5453;50.852;7.102;2023-12-20T06:36:16;8.07;;;2.80;;
10801;SDS011;5453;50.852;7.102;2023-12-20T06:38:51;11.50;;;3.38;;
10801;SDS011;5453;50.852;7.102;2023-12-20T06:41:25;13.10;;;3.78;;
10801;SDS011;5453;50.852;7.102;2023-12-20T06:43:57;9.27;;;2.88;;
10801;SDS011;5453;50.852;7.102;2023-12-20T06:46:30;7.85;;;3.00;;
10801;SDS011;5453;50.852;7.102;2023-12-20T06:49:02;10.05;;;3.08;;
10801;SDS011;5453;50.852;7.102;2023-12-20T06:51:34;6.47;;;2.78;;
10801;SDS011;5453;50.852;7.102;2023-12-20T06:54:07;6.45;;;2.78;;
10801;SDS011;5453;50.852;7.102;2023-12-20T06:56:41;5.05;;;2.55;;
10801;SDS011;5453;50.852;7.102;2023-12-20T06:59:13;10.82;;;2.72;;
10801;SDS011;5453;50.852;7.102;2023-12-20T07:01:47;10.32;;;2.72;;
10801;SDS011;5453;50.852;7.102;2023-12-20T07:04:20;7.65;;;3.05;;
10801;SDS011;5453;50.852;7.102;2023-12-20T07:06:53;11.13;;;2.53;;
10801;SDS011;5453;50.852;7.102;2023-12-20T07:09:27;8.23;;;2.58;;
10801;SDS011;5453;50.852;7.102;2023-12-20T07:12:01;10.55;;;3.00;;
10801;SDS011;5453;50.852;7.102;2023-12-20T07:14:34;5.95;;;2.42;;
10801;SDS011;5453;50.852;7.102;2023-12-20T07:17:06;8.23;;;2.65;;
10801;SDS011;5453;50.852;7.102;2023-12-20T07:19:41;11.00;;;2.92;;
10801;SDS011;5453;50.852;7.102;2023-12-20T07:22:14;7.65;;;2.15;;
10801;SDS011;5453;50.852;7.102;2023-12-20T07:24:46;10.90;;;3.10;;
10801;SDS011;5453;50.852;7.102;2023-12-20T07:27:21;9.48;;;2.47;;
10801;SDS011;5453;50.852;7.102;2023-12-20T07:29:53;10.05;;;2.28;;
10801;SDS011;5453;50.852;7.102;2023-12-20T07:32:26;7.15;;;2.55;;
10801;SDS011;5453;50.852;7.102;2023-12-20T07:34:58;7.38;;;2.70;;
10801;SDS011;5453;50.852;7.102;2023-12-20T07:37:30;9.23;;;2.70;;
10801;SDS011;5453;50.852;7.102;2023-12-20T07:40:03;6.95;;;2.08;;
10801;SDS011;5453;50.852;7.102;2023-12-20T07:42:38;10.13;;;2.83;;
10801;SDS011;5453;50.852;7.102;2023-12-20T07:45:10;9.77;;;2.28;;
10801;SDS011;5453;50.852;7.102;2023-12-20T07:47:43;7.65;;;2.03;;
10801;SDS011;5453;50.852;7.102;2023-12-20T07:50:15;7.95;;;2.35;;
10801;SDS011;5453;50.852;7.102;2023-12-20T07:52:51;5.97;;;2.10;;
10801;SDS011;5453;50.852;7.102;2023-12-20T07:55:23;10.43;;;2.30;;
10801;SDS011;5453;50.852;7.102;2023-12-20T07:57:57;5.45;;;2.10;;
10801;SDS011;5453;50.852;7.102;2023-12-20T08:00:30;8.35;;;2.10;;
10801;SDS011;5453;50.852;7.102;2023-12-20T08:03:03;6.43;;;2.15;;
10801;SDS011;5453;50.852;7.102;2023-12-20T08:05:35;7.60;;;1.88;;
10801;SDS011;5453;50.852;7.102;2023-12-20T08:08:10;6.22;;;1.77;;
10801;SDS011;5453;50.852;7.102;2023-12-20T08:10:45;8.82;;;2.47;;
10801;SDS011;5453;50.852;7.102;2023-12-20T08:13:19;8.80;;;2.13;;
10801;SDS011;5453;50.852;7.102;2023-12-20T08:15:55;6.85;;;2.40;;
10801;SDS011;5453;50.852;7.102;2023-12-20T08:18:27;9.05;;;1.98;;
10801;SDS011;5453;50.852;7.102;2023-12-20T08:21:00;6.07;;;2.08;;
10801;SDS011;5453;50.852;7.102;2023-12-20T08:23:32;7.63;;;2.13;;
10801;SDS011;5453;50.852;7.102;2023-12-20T08:26:05;7.10;;;2.05;;
10801;SDS011;5453;50.852;7.102;2023-12-20T08:28:39;9.43;;;2.60;;
10801;SDS011;5453;50.852;7.102;2023-12-20T08:31:13;9.82;;;2.90;;
10801;SDS011;5453;50.852;7.102;2023-12-20T08:36:19;5.63;;;1.92;;
10801;SDS011;5453;50.852;7.102;2023-12-20T08:38:53;8.45;;;2.10;;
10801;SDS011;5453;50.852;7.102;2023-12-20T08:41:27;7.68;;;2.15;;
10801;SDS011;5453;50.852;7.102;2023-12-20T08:44:00;8.00;;;1.73;;
10801;SDS011;5453;50.852;7.102;2023-12-20T08:46:33;7.03;;;1.95;;
10801;SDS011;5453;50.852;7.102;2023-12-20T08:49:06;6.78;;;1.83;;
10801;SDS011;5453;50.852;7.102;2023-12-20T08:51:40;8.65;;;2.10;;
10801;SDS011;5453;50.852;7.102;2023-12-20T08:54:12;7.55;;;2.35;;
10801;SDS011;5453;50.852;7.102;2023-12-20T08:56:44;6.50;;;2.03;;
10801;SDS011;5453;50.852;7.102;2023-12-20T08:59:19;7.72;;;2.13;;
10801;SDS011;5453;50.852;7.102;2023-12-20T09:01:51;6.68;;;1.83;;
10801;SDS011;5453;50.852;7.102;2023-12-20T09:04:25;5.07;;;1.90;;
10801;SDS011;5453;50.852;7.102;2023-12-20T09:07:00;7.70;;;2.10;;
10801;SDS011;5453;50.852;7.102;2023-12-20T09:09:32;8.50;;;1.80;;
10801;SDS011;5453;50.852;7.102;2023-12-20T09:12:05;7.47;;;1.90;;
10801;SDS011;5453;50.852;7.102;2023-12-20T09:14:39;6.78;;;1.98;;
10801;SDS011;5453;50.852;7.102;2023-12-20T09:17:12;12.65;;;2.95;;
10801;SDS011;5453;50.852;7.102;2023-12-20T09:19:44;8.68;;;1.77;;
10801;SDS011;5453;50.852;7.102;2023-12-20T09:22:17;7.43;;;1.67;;
10801;SDS011;5453;50.852;7.102;2023-12-20T09:24:52;8.50;;;2.00;;
10801;SDS011;5453;50.852;7.102;2023-12-20T09:27:25;5.97;;;1.65;;
10801;SDS011;5453;50.852;7.102;2023-12-20T09:30:02;7.57;;;1.83;;
10801;SDS011;5453;50.852;7.102;2023-12-20T09:32:36;5.13;;;1.48;;
10801;SDS011;5453;50.852;7.102;2023-12-20T09:35:08;9.52;;;1.90;;
10801;SDS011;5453;50.852;7.102;2023-12-20T09:37:41;4.38;;;1.30;;
10801;SDS011;5453;50.852;7.102;2023-12-20T09:40:15;4.90;;;1.80;;
10801;SDS011;5453;50.852;7.102;2023-12-20T09:42:55;3.30;;;1.33;;
10801;SDS011;5453;50.852;7.102;2023-12-20T09:45:31;6.15;;;1.92;;
10801;SDS011;5453;50.852;7.102;2023-12-20T09:48:05;8.95;;;1.95;;
10801;SDS011;5453;50.852;7.102;2023-12-20T09:50:39;4.13;;;1.48;;
10801;SDS011;5453;50.852;7.102;2023-12-20T09:53:11;3.15;;;1.63;;
10801;SDS011;5453;50.852;7.102;2023-12-20T09:55:47;5.45;;;1.73;;
10801;SDS011;5453;50.852;7.102;2023-12-20T09:58:19;4.45;;;1.83;;
10801;SDS011;5453;50.852;7.102;2023-12-20T10:00:54;6.50;;;1.88;;
10801;SDS011;5453;50.852;7.102;2023-12-20T10:03:27;5.90;;;1.40;;
10801;SDS011;5453;50.852;7.102;2023-12-20T10:06:00;4.53;;;1.85;;
10801;SDS011;5453;50.852;7.102;2023-12-20T10:08:32;5.32;;;1.83;;
10801;SDS011;5453;50.852;7.102;2023-12-20T10:11:05;8.27;;;2.25;;
10801;SDS011;5453;50.852;7.102;2023-12-20T10:13:39;7.65;;;2.00;;
10801;SDS011;5453;50.852;7.102;2023-12-20T10:16:13;5.53;;;1.67;;
10801;SDS011;5453;50.852;7.102;2023-12-20T10:18:46;4.97;;;1.52;;
10801;SDS011;5453;50.852;7.102;2023-12-20T10:21:18;7.13;;;1.65;;
10801;SDS011;5453;50.852;7.102;2023-12-20T10:23:50;5.75;;;2.03;;
10801;SDS011;5453;50.852;7.102;2023-12-20T10:26:24;9.00;;;2.10;;
10801;SDS011;5453;50.852;7.102;2023-12-20T10:28:59;6.90;;;1.80;;
10801;SDS011;5453;50.852;7.102;2023-12-20T10:31:35;8.48;;;1.77;;
10801;SDS011;5453;50.852;7.102;2023-12-20T10:34:09;8.60;;;1.70;;
10801;SDS011;5453;50.852;7.102;2023-12-20T10:36:41;9.57;;;1.85;;
10801;SDS011;5453;50.852;7.102;2023-12-20T10:39:16;5.00;;;1.60;;
10801;SDS011;5453;50.852;7.102;2023-12-20T10:41:50;7.13;;;1.95;;
10801;SDS011;5453;50.852;7.102;2023-12-20T10:44:22;5.93;;;2.08;;
10801;SDS011;5453;50.852;7.102;2023-12-20T10:46:57;8.55;;;2.28;;
10801;SDS011;5453;50.852;7.102;2023-12-20T10:49:30;6.28;;;1.42;;
10801;SDS011;5453;50.852;7.102;2023-12-20T10:52:03;6.35;;;2.00;;
10801;SDS011;5453;50.852;7.102;2023-12-20T10:54:38;5.65;;;1.70;;
10801;SDS011;5453;50.852;7.102;2023-12-20T10:57:11;9.35;;;2.25;;
10801;SDS011;5453;50.852;7.102;2023-12-20T10:59:44;6.85;;;1.90;;
10801;SDS011;5453;50.852;7.102;2023-12-20T11:02:19;3.83;;;1.23;;
10801;SDS011;5453;50.852;7.102;2023-12-20T11:07:39;5.15;;;1.63;;
10801;SDS011;5453;50.852;7.102;2023-12-20T11:10:20;6.75;;;1.80;;
10801;SDS011;5453;50.852;7.102;2023-12-20T11:13:03;8.65;;;1.67;;
10801;SDS011;5453;50.852;7.102;2023-12-20T11:15:42;7.57;;;1.80;;
10801;SDS011;5453;50.852;7.102;2023-12-20T11:18:16;6.13;;;1.90;;
10801;SDS011;5453;50.852;7.102;2023-12-20T11:20:48;4.80;;;1.85;;
10801;SDS011;5453;50.852;7.102;2023-12-20T11:23:27;6.13;;;1.73;;
10801;SDS011;5453;50.852;7.102;2023-12-20T11:26:01;6.10;;;1.77;;
10801;SDS011;5453;50.852;7.102;2023-12-20T11:28:34;8.20;;;2.00;;
10801;SDS011;5453;50.852;7.102;2023-12-20T11:31:07;9.75;;;2.03;;
10801;SDS011;5453;50.852;7.102;2023-12-20T11:33:42;5.93;;;2.03;;
10801;SDS011;5453;50.852;7.102;2023-12-20T11:36:18;5.05;;;1.73;;
10801;SDS011;5453;50.852;7.102;2023-12-20T11:38:54;8.05;;;2.00;;
10801;SDS011;5453;50.852;7.102;2023-12-20T11:41:28;4.22;;;1.83;;
10801;SDS011;5453;50.852;7.102;2023-12-20T11:44:00;5.93;;;1.77;;
10801;SDS011;5453;50.852;7.102;2023-12-20T11:46:33;10.48;;;2.30;;
10801;SDS011;5453;50.852;7.102;2023-12-20T11:49:10;6.65;;;1.92;;
10801;SDS011;5453;50.852;7.102;2023-12-20T11:51:42;4.40;;;1.52;;
10801;SDS011;5453;50.852;7.102;2023-12-20T11:54:16;9.10;;;2.05;;
10801;SDS011;5453;50.852;7.102;2023-12-20T11:56:48;9.18;;;2.17;;
10801;SDS011;5453;50.852;7.102;2023-12-20T11:59:20;8.27;;;2.15;;
10801;SDS011;5453;50.852;7.102;2023-12-20T12:01:53;5.82;;;2.33;;
10801;SDS011;5453;50.852;7.102;2023-12-20T12:04:31;5.97;;;1.83;;
10801;SDS011;5453;50.852;7.102;2023-12-20T12:07:04;6.75;;;2.00;;
10801;SDS011;5453;50.852;7.102;2023-12-20T12:09:36;4.72;;;1.83;;
10801;SDS011;5453;50.852;7.102;2023-12-20T12:12:09;9.15;;;1.90;;
10801;SDS011;5453;50.852;7.102;2023-12-20T12:14:42;3.70;;;1.52;;
10801;SDS011;5453;50.852;7.102;2023-12-20T12:17:14;5.13;;;2.13;;
10801;SDS011;5453;50.852;7.102;2023-12-20T12:19:48;7.47;;;1.45;;
10801;SDS011;5453;50.852;7.102;2023-12-20T12:22:20;9.45;;;1.90;;
10801;SDS011;5453;50.852;7.102;2023-12-20T12:24:59;7.60;;;1.80;;
10801;SDS011;5453;50.852;7.102;2023-12-20T12:27:41;5.05;;;1.52;;
10801;SDS011;5453;50.852;7.102;2023-12-20T12:30:15;3.80;;;1.60;;
10801;SDS011;5453;50.852;7.102;2023-12-20T12:32:48;3.90;;;1.67;;
10801;SDS011;5453;50.852;7.102;2023-12-20T12:35:23;5.97;;;1.90;;
10801;SDS011;5453;50.852;7.102;2023-12-20T12:37:58;3.97;;;1.65;;
10801;SDS011;5453;50.852;7.102;2023-12-20T12:40:34;5.82;;;2.17;;
10801;SDS011;5453;50.852;7.102;2023-12-20T12:43:07;6.20;;;1.83;;
10801;SDS011;5453;50.852;7.102;2023-12-20T12:45:39;6.03;;;1.70;;
10801;SDS011;5453;50.852;7.102;2023-12-20T12:48:12;6.32;;;2.35;;
10801;SDS011;5453;50.852;7.102;2023-12-20T12:50:47;4.43;;;1.80;;
10801;SDS011;5453;50.852;7.102;2023-12-20T12:53:24;7.03;;;2.13;;
10801;SDS011;5453;50.852;7.102;2023-12-20T12:55:58;5.25;;;2.15;;
10801;SDS011;5453;50.852;7.102;2023-12-20T12:58:30;9.73;;;2.15;;
10801;SDS011;5453;50.852;7.102;2023-12-20T13:01:03;9.55;;;2.00;;
10801;SDS011;5453;50.852;7.102;2023-12-20T13:03:35;4.15;;;1.98;;
10801;SDS011;5453;50.852;7.102;2023-12-20T13:06:10;6.50;;;1.60;;
10801;SDS011;5453;50.852;7.102;2023-12-20T13:08:42;3.78;;;1.70;;
10801;SDS011;5453;50.852;7.102;2023-12-20T13:11:15;7.32;;;2.05;;
10801;SDS011;5453;50.852;7.102;2023-12-20T13:13:48;7.95;;;1.75;;
10801;SDS011;5453;50.852;7.102;2023-12-20T13:16:20;9.98;;;2.33;;
10801;SDS011;5453;50.852;7.102;2023-12-20T13:18:52;6.65;;;1.83;;
10801;SDS011;5453;50.852;7.102;2023-12-20T13:21:27;8.98;;;2.00;;
10801;SDS011;5453;50.852;7.102;2023-12-20T13:26:33;5.70;;;1.83;;
10801;SDS011;5453;50.852;7.102;2023-12-20T13:29:06;4.35;;;2.10;;
10801;SDS011;5453;50.852;7.102;2023-12-20T13:31:38;7.88;;;2.10;;
10801;SDS011;5453;50.852;7.102;2023-12-20T13:34:11;5.55;;;1.95;;
10801;SDS011;5453;50.852;7.102;2023-12-20T13:36:44;3.35;;;1.90;;
10801;SDS011;5453;50.852;7.102;2023-12-20T13:39:21;7.28;;;2.75;;
10801;SDS011;5453;50.852;7.102;2023-12-20T13:41:53;8.38;;;2.45;;
10801;SDS011;5453;50.852;7.102;2023-12-20T13:44:26;8.63;;;2.35;;
10801;SDS011;5453;50.852;7.102;2023-12-20T13:46:59;5.15;;;2.30;;
10801;SDS011;5453;50.852;7.102;2023-12-20T13:49:34;3.50;;;1.95;;
10801;SDS011;5453;50.852;7.102;2023-12-20T13:52:08;9.52;;;2.50;;
10801;SDS011;5453;50.852;7.102;2023-12-20T13:54:41;6.70;;;1.90;;
10801;SDS011;5453;50.852;7.102;2023-12-20T13:57:14;5.40;;;2.30;;
10801;SDS011;5453;50.852;7.102;2023-12-20T13:59:46;6.80;;;2.63;;
10801;SDS011;5453;50.852;7.102;2023-12-20T14:02:19;5.93;;;2.35;;
10801;SDS011;5453;50.852;7.102;2023-12-20T14:04:51;6.43;;;2.40;;
10801;SDS011;5453;50.852;7.102;2023-12-20T14:07:28;5.82;;;2.55;;
10801;SDS011;5453;50.852;7.102;2023-12-20T14:10:00;5.85;;;2.25;;
10801;SDS011;5453;50.852;7.102;2023-12-20T14:12:33;6.20;;;2.42;;
10801;SDS011;5453;50.852;7.102;2023-12-20T14:15:07;8.52;;;2.17;;
10801;SDS011;5453;50.852;7.102;2023-12-20T14:17:44;4.50;;;2.45;;
10801;SDS011;5453;50.852;7.102;2023-12-20T14:20:16;5.78;;;1.90;;
10801;SDS011;5453;50.852;7.102;2023-12-20T14:22:51;7.80;;;2.17;;
10801;SDS011;5453;50.852;7.102;2023-12-20T14:25:23;4.38;;;2.10;;
10801;SDS011;5453;50.852;7.102;2023-12-20T14:27:55;6.38;;;1.98;;
10801;SDS011;5453;50.852;7.102;2023-12-20T14:30:28;6.13;;;2.65;;
10801;SDS011;5453;50.852;7.102;2023-12-20T14:33:00;5.55;;;2.03;;
10801;SDS011;5453;50.852;7.102;2023-12-20T14:35:36;8.98;;;2.20;;
10801;SDS011;5453;50.852;7.102;2023-12-20T14:38:10;4.72;;;1.88;;
10801;SDS011;5453;50.852;7.102;2023-12-20T14:40:43;5.63;;;2.13;;
10801;SDS011;5453;50.852;7.102;2023-12-20T14:43:16;4.43;;;2.00;;
10801;SDS011;5453;50.852;7.102;2023-12-20T14:45:48;6.05;;;2.40;;
10801;SDS011;5453;50.852;7.102;2023-12-20T14:48:21;6.47;;;1.73;;
10801;SDS011;5453;50.852;7.102;2023-12-20T14:50:53;5.03;;;1.83;;
10801;SDS011;5453;50.852;7.102;2023-12-20T14:53:30;4.55;;;1.83;;
10801;SDS011;5453;50.852;7.102;2023-12-20T14:56:02;4.05;;;2.03;;
10801;SDS011;5453;50.852;7.102;2023-12-20T14:58:36;4.70;;;1.75;;
10801;SDS011;5453;50.852;7.102;2023-12-20T15:01:09;2.10;;;1.45;;
10801;SDS011;5453;50.852;7.102;2023-12-20T15:03:44;4.60;;;1.85;;
10801;SDS011;5453;50.852;7.102;2023-12-20T15:06:17;4.68;;;1.65;;
10801;SDS011;5453;50.852;7.102;2023-12-20T15:08:51;2.72;;;1.40;;
10801;SDS011;5453;50.852;7.102;2023-12-20T15:11:24;5.20;;;2.00;;
10801;SDS011;5453;50.852;7.102;2023-12-20T15:13:56;5.35;;;1.70;;
10801;SDS011;5453;50.852;7.102;2023-12-20T15:16:30;3.63;;;1.92;;
10801;SDS011;5453;50.852;7.102;2023-12-20T15:19:02;5.03;;;1.48;;
10801;SDS011;5453;50.852;7.102;2023-12-20T15:21:35;4.95;;;1.75;;
10801;SDS011;5453;50.852;7.102;2023-12-20T15:24:12;5.88;;;1.73;;
10801;SDS011;5453;50.852;7.102;2023-12-20T15:26:46;4.80;;;1.67;;
10801;SDS011;5453;50.852;7.102;2023-12-20T15:29:18;6.35;;;1.60;;
10801;SDS011;5453;50.852;7.102;2023-12-20T15:31:54;5.47;;;1.75;;
10801;SDS011;5453;50.852;7.102;2023-12-20T15:34:27;3.60;;;1.38;;
10801;SDS011;5453;50.852;7.102;2023-12-20T15:36:59;5.95;;;1.75;;
10801;SDS011;5453;50.852;7.102;2023-12-20T15:39:36;3.90;;;1.48;;
10801;SDS011;5453;50.852;7.102;2023-12-20T15:42:08;3.97;;;1.50;;
10801;SDS011;5453;50.852;7.102;2023-12-20T15:44:41;6.72;;;1.65;;
10801;SDS011;5453;50.852;7.102;2023-12-20T15:47:13;6.30;;;1.60;;